sensor_id;sensor_type;location;lat;lon;timestamp;pressure;altitude;pressure_sealevel;temperature;humidity
39769;BME280;38939;47.824;14.642;2023-04-21T00:00:29;96583.31;;;8.92;75.80
39769;BME280;38939;47.824;14.642;2023-04-21T00:01:31;96582.72;;;8.90;76.27
39769;BME280;38939;47.824;14.642;2023-04-21T00:02:34;96589.72;;;8.89;76.47
39769;BME280;38939;47.824;14.642;2023-04-21T00:03:40;96586.53;;;8.87;75.71
39769;BME280;38939;47.824;14.642;2023-04-21T00:04:42;96581.91;;;8.89;75.82
39769;BME280;38939;47.824;14.642;2023-04-21T00:05:48;96587.69;;;8.78;76.36
39769;BME280;38939;47.824;14.642;2023-04-21T00:06:50;96583.69;;;8.75;76.39
39769;BME280;38939;47.824;14.642;2023-04-21T00:07:53;96585.28;;;8.76;76.20
39769;BME280;38939;47.824;14.642;2023-04-21T00:08:55;96584.31;;;8.77;76.27
39769;BME280;38939;47.824;14.642;2023-04-21T00:09:57;96583.09;;;8.80;76.50
39769;BME280;38939;47.824;14.642;2023-04-21T00:10:59;96584.72;;;8.81;76.21
39769;BME280;38939;47.824;14.642;2023-04-21T00:12:00;96584.72;;;8.81;75.60
39769;BME280;38939;47.824;14.642;2023-04-21T00:13:02;96571.91;;;8.79;75.75
39769;BME280;38939;47.824;14.642;2023-04-21T00:14:04;96574.09;;;8.76;76.38
39769;BME280;38939;47.824;14.642;2023-04-21T00:15:06;96569.50;;;8.71;76.71
39769;BME280;38939;47.824;14.642;2023-04-21T00:16:08;96579.47;;;8.68;76.97
39769;BME280;38939;47.824;14.642;2023-04-21T00:17:10;96567.06;;;8.63;76.94
39769;BME280;38939;47.824;14.642;2023-04-21T00:18:12;96573.06;;;8.64;76.83
39769;BME280;38939;47.824;14.642;2023-04-21T00:19:14;96561.47;;;8.66;76.34
39769;BME280;38939;47.824;14.642;2023-04-21T00:20:16;96575.06;;;8.68;76.56
39769;BME280;38939;47.824;14.642;2023-04-21T00:21:18;96575.06;;;8.68;76.30
39769;BME280;38939;47.824;14.642;2023-04-21T00:22:20;96571.06;;;8.66;76.40
39769;BME280;38939;47.824;14.642;2023-04-21T00:23:22;96560.06;;;8.64;76.08
39769;BME280;38939;47.824;14.642;2023-04-21T00:24:25;96560.66;;;8.66;76.42
39769;BME280;38939;47.824;14.642;2023-04-21T00:25:27;96567.50;;;8.67;76.31
39769;BME280;38939;47.824;14.642;2023-04-21T00:26:29;96568.28;;;8.67;76.15
39769;BME280;38939;47.824;14.642;2023-04-21T00:27:30;96564.66;;;8.68;76.04
39769;BME280;38939;47.824;14.642;2023-04-21T00:28:32;96563.88;;;8.68;75.81
39769;BME280;38939;47.824;14.642;2023-04-21T00:29:34;96562.28;;;8.67;75.44
39769;BME280;38939;47.824;14.642;2023-04-21T00:30:36;96561.09;;;8.63;76.30
39769;BME280;38939;47.824;14.642;2023-04-21T00:31:38;96564.25;;;8.51;77.04
39769;BME280;38939;47.824;14.642;2023-04-21T00:32:39;96565.44;;;8.49;76.28
39769;BME280;38939;47.824;14.642;2023-04-21T00:33:41;96567.03;;;8.50;76.57
39769;BME280;38939;47.824;14.642;2023-04-21T00:34:43;96561.03;;;8.49;75.91
39769;BME280;38939;47.824;14.642;2023-04-21T00:35:45;96556.44;;;8.51;75.96
39769;BME280;38939;47.824;14.642;2023-04-21T00:36:47;96552.84;;;8.52;75.58
39769;BME280;38939;47.824;14.642;2023-04-21T00:37:49;96556.22;;;8.46;76.52
39769;BME280;38939;47.824;14.642;2023-04-21T00:38:51;96559.59;;;8.40;76.77
39769;BME280;38939;47.824;14.642;2023-04-21T00:39:53;96552.19;;;8.37;76.84
39769;BME280;38939;47.824;14.642;2023-04-21T00:40:54;96556.97;;;8.33;77.64
39769;BME280;38939;47.824;14.642;2023-04-21T00:41:56;96543.97;;;8.27;77.84
39769;BME280;38939;47.824;14.642;2023-04-21T00:42:58;96547.75;;;8.24;78.18
39769;BME280;38939;47.824;14.642;2023-04-21T00:44:07;96544.75;;;8.20;78.56
39769;BME280;38939;47.824;14.642;2023-04-21T00:45:10;96549.53;;;8.24;77.10
39769;BME280;38939;47.824;14.642;2023-04-21T00:46:12;96547.34;;;8.27;76.93
39769;BME280;38939;47.824;14.642;2023-04-21T00:47:13;96538.97;;;8.32;76.35
39769;BME280;38939;47.824;14.642;2023-04-21T00:48:15;96545.38;;;8.36;76.44
39769;BME280;38939;47.824;14.642;2023-04-21T00:49:17;96543.38;;;8.38;76.67
39769;BME280;38939;47.824;14.642;2023-04-21T00:50:19;96545.00;;;8.39;76.98
39769;BME280;38939;47.824;14.642;2023-04-21T00:51:21;96538.59;;;8.35;76.84
39769;BME280;38939;47.824;14.642;2023-04-21T00:52:23;96541.19;;;8.35;76.72
39769;BME280;38939;47.824;14.642;2023-04-21T00:53:25;96534.97;;;8.36;75.95
39769;BME280;38939;47.824;14.642;2023-04-21T00:54:27;96536.59;;;8.37;76.16
39769;BME280;38939;47.824;14.642;2023-04-21T00:55:29;96539.19;;;8.30;76.67
39769;BME280;38939;47.824;14.642;2023-04-21T00:56:32;96534.19;;;8.29;76.67
39769;BME280;38939;47.824;14.642;2023-04-21T00:57:34;96532.19;;;8.31;76.70
39769;BME280;38939;47.824;14.642;2023-04-21T00:58:37;96538.78;;;8.33;76.67
39769;BME280;38939;47.824;14.642;2023-04-21T00:59:40;96539.56;;;8.34;76.45
39769;BME280;38939;47.824;14.642;2023-04-21T01:00:43;96538.59;;;8.35;76.44
39769;BME280;38939;47.824;14.642;2023-04-21T01:01:45;96541.00;;;8.36;76.18
39769;BME280;38939;47.824;14.642;2023-04-21T01:02:47;96536.59;;;8.37;76.21
39769;BME280;38939;47.824;14.642;2023-04-21T01:03:50;96541.38;;;8.33;77.00
39769;BME280;38939;47.824;14.642;2023-04-21T01:04:52;96540.56;;;8.26;77.16
39769;BME280;38939;47.824;14.642;2023-04-21T01:05:54;96538.53;;;8.21;77.99
39769;BME280;38939;47.824;14.642;2023-04-21T01:06:57;96539.69;;;8.06;79.35
39769;BME280;38939;47.824;14.642;2023-04-21T01:08:00;96546.09;;;8.03;79.27
39769;BME280;38939;47.824;14.642;2023-04-21T01:09:02;96538.88;;;8.05;78.75
39769;BME280;38939;47.824;14.642;2023-04-21T01:10:07;96547.28;;;8.07;77.90
39769;BME280;38939;47.824;14.642;2023-04-21T01:11:10;96550.91;;;8.06;78.27
39769;BME280;38939;47.824;14.642;2023-04-21T01:12:12;96552.91;;;8.04;78.11
39769;BME280;38939;47.824;14.642;2023-04-21T01:13:16;96554.28;;;8.07;78.16
39769;BME280;38939;47.824;14.642;2023-04-21T01:14:19;96557.31;;;8.10;77.92
39769;BME280;38939;47.824;14.642;2023-04-21T01:15:21;96544.94;;;8.12;78.15
39769;BME280;38939;47.824;14.642;2023-04-21T01:16:23;96540.09;;;8.09;77.65
39769;BME280;38939;47.824;14.642;2023-04-21T01:17:25;96546.09;;;8.03;78.34
39769;BME280;38939;47.824;14.642;2023-04-21T01:18:27;96544.50;;;8.02;78.45
39769;BME280;38939;47.824;14.642;2023-04-21T01:19:31;96540.88;;;8.03;78.08
39769;BME280;38939;47.824;14.642;2023-04-21T01:20:33;96540.69;;;7.98;78.67
39769;BME280;38939;47.824;14.642;2023-04-21T01:21:39;96546.44;;;7.93;78.74
39769;BME280;38939;47.824;14.642;2023-04-21T01:22:42;96550.66;;;7.94;78.22
39769;BME280;38939;47.824;14.642;2023-04-21T01:23:45;96550.84;;;7.93;78.24
39769;BME280;38939;47.824;14.642;2023-04-21T01:24:47;96541.47;;;7.92;78.61
39769;BME280;38939;47.824;14.642;2023-04-21T01:25:50;96545.63;;;7.93;78.06
39769;BME280;38939;47.824;14.642;2023-04-21T01:26:52;96540.63;;;7.91;78.98
39769;BME280;38939;47.824;14.642;2023-04-21T01:27:54;96545.81;;;7.85;79.14
39769;BME280;38939;47.824;14.642;2023-04-21T01:28:56;96543.03;;;7.86;78.62
39769;BME280;38939;47.824;14.642;2023-04-21T01:29:58;96539.22;;;7.89;78.58
39769;BME280;38939;47.824;14.642;2023-04-21T01:31:00;96542.44;;;7.91;78.09
39769;BME280;38939;47.824;14.642;2023-04-21T01:32:03;96532.47;;;7.94;78.19
39769;BME280;38939;47.824;14.642;2023-04-21T01:33:05;96540.06;;;7.96;78.24
39769;BME280;38939;47.824;14.642;2023-04-21T01:34:09;96546.06;;;7.96;77.48
39769;BME280;38939;47.824;14.642;2023-04-21T01:35:11;96545.06;;;7.97;77.13
39769;BME280;38939;47.824;14.642;2023-04-21T01:36:13;96541.28;;;8.00;77.59
39769;BME280;38939;47.824;14.642;2023-04-21T01:37:15;96545.47;;;8.01;77.48
39769;BME280;38939;47.824;14.642;2023-04-21T01:38:17;96542.88;;;8.01;76.74
39769;BME280;38939;47.824;14.642;2023-04-21T01:39:20;96543.66;;;8.01;77.13
39769;BME280;38939;47.824;14.642;2023-04-21T01:40:21;96544.50;;;8.02;77.10
39769;BME280;38939;47.824;14.642;2023-04-21T01:41:23;96550.28;;;8.04;77.19
39769;BME280;38939;47.824;14.642;2023-04-21T01:42:26;96548.06;;;8.01;78.34
39769;BME280;38939;47.824;14.642;2023-04-21T01:43:28;96543.66;;;7.95;78.66
39769;BME280;38939;47.824;14.642;2023-04-21T01:44:30;96542.84;;;7.94;78.34
39769;BME280;38939;47.824;14.642;2023-04-21T01:45:32;96541.47;;;7.92;77.74
39769;BME280;38939;47.824;14.642;2023-04-21T01:46:34;96541.47;;;7.92;77.38
39769;BME280;38939;47.824;14.642;2023-04-21T01:47:36;96541.06;;;7.95;77.98
39769;BME280;38939;47.824;14.642;2023-04-21T01:48:38;96544.06;;;7.92;78.10
39769;BME280;38939;47.824;14.642;2023-04-21T01:49:39;96543.84;;;7.93;77.63
39769;BME280;38939;47.824;14.642;2023-04-21T01:50:41;96548.06;;;7.94;77.14
39769;BME280;38939;47.824;14.642;2023-04-21T01:51:43;96541.06;;;7.95;77.50
39769;BME280;38939;47.824;14.642;2023-04-21T01:52:45;96544.84;;;7.92;78.07
39769;BME280;38939;47.824;14.642;2023-04-21T01:53:47;96540.63;;;7.91;77.99
39769;BME280;38939;47.824;14.642;2023-04-21T01:54:49;96554.44;;;7.92;77.27
39769;BME280;38939;47.824;14.642;2023-04-21T01:55:51;96544.84;;;7.92;77.71
39769;BME280;38939;47.824;14.642;2023-04-21T01:56:53;96549.84;;;7.94;77.25
39769;BME280;38939;47.824;14.642;2023-04-21T01:57:54;96543.66;;;7.95;77.47
39769;BME280;38939;47.824;14.642;2023-04-21T01:59:00;96541.84;;;7.95;76.73
39769;BME280;38939;47.824;14.642;2023-04-21T02:00:02;96540.44;;;7.93;76.48
39769;BME280;38939;47.824;14.642;2023-04-21T02:01:04;96546.03;;;7.90;76.65
39769;BME280;38939;47.824;14.642;2023-04-21T02:02:06;96539.59;;;7.86;77.61
39769;BME280;38939;47.824;14.642;2023-04-21T02:03:08;96542.41;;;7.84;77.50
39769;BME280;38939;47.824;14.642;2023-04-21T02:04:10;96550.75;;;7.79;76.92
39769;BME280;38939;47.824;14.642;2023-04-21T02:05:12;96550.75;;;7.79;77.62
39769;BME280;38939;47.824;14.642;2023-04-21T02:06:14;96550.16;;;7.77;77.56
39769;BME280;38939;47.824;14.642;2023-04-21T02:07:18;96548.34;;;7.71;77.89
39769;BME280;38939;47.824;14.642;2023-04-21T02:08:21;96552.72;;;7.71;77.90
39769;BME280;38939;47.824;14.642;2023-04-21T02:09:23;96553.34;;;7.73;77.93
39769;BME280;38939;47.824;14.642;2023-04-21T02:10:25;96554.53;;;7.70;77.84
39769;BME280;38939;47.824;14.642;2023-04-21T02:11:27;96554.72;;;7.69;78.17
39769;BME280;38939;47.824;14.642;2023-04-21T02:12:28;96555.31;;;7.64;77.66
39769;BME280;38939;47.824;14.642;2023-04-21T02:13:30;96552.09;;;7.62;77.78
39769;BME280;38939;47.824;14.642;2023-04-21T02:14:32;96558.25;;;7.61;77.92
39769;BME280;38939;47.824;14.642;2023-04-21T02:15:34;96565.88;;;7.63;77.93
39769;BME280;38939;47.824;14.642;2023-04-21T02:16:37;96560.06;;;7.60;78.79
39769;BME280;38939;47.824;14.642;2023-04-21T02:17:39;96560.25;;;7.59;78.06
39769;BME280;38939;47.824;14.642;2023-04-21T02:18:43;96550.88;;;7.58;78.82
39769;BME280;38939;47.824;14.642;2023-04-21T02:19:45;96559.47;;;7.58;78.87
39769;BME280;38939;47.824;14.642;2023-04-21T02:20:48;96556.69;;;7.60;78.63
39769;BME280;38939;47.824;14.642;2023-04-21T02:21:50;96554.69;;;7.62;78.25
39769;BME280;38939;47.824;14.642;2023-04-21T02:22:52;96562.28;;;7.64;77.92
39769;BME280;38939;47.824;14.642;2023-04-21T02:23:54;96548.50;;;7.63;77.54
39769;BME280;38939;47.824;14.642;2023-04-21T02:24:55;96558.88;;;7.63;78.05
39769;BME280;38939;47.824;14.642;2023-04-21T02:25:57;96565.50;;;7.66;77.51
39769;BME280;38939;47.824;14.642;2023-04-21T02:26:59;96562.69;;;7.67;77.72
39769;BME280;38939;47.824;14.642;2023-04-21T02:28:03;96557.50;;;7.67;77.60
39769;BME280;38939;47.824;14.642;2023-04-21T02:29:05;96560.91;;;7.68;77.66
39769;BME280;38939;47.824;14.642;2023-04-21T02:30:07;96561.09;;;7.66;77.28
39769;BME280;38939;47.824;14.642;2023-04-21T02:31:09;96557.50;;;7.67;77.37
39769;BME280;38939;47.824;14.642;2023-04-21T02:32:11;96552.47;;;7.59;78.11
39769;BME280;38939;47.824;14.642;2023-04-21T02:33:26;96556.22;;;7.50;78.50
39769;BME280;38939;47.824;14.642;2023-04-21T02:34:29;96554.59;;;7.49;78.30
39769;BME280;38939;47.824;14.642;2023-04-21T02:35:31;96551.03;;;7.50;78.55
39769;BME280;38939;47.824;14.642;2023-04-21T02:36:34;96551.56;;;7.45;78.37
39769;BME280;38939;47.824;14.642;2023-04-21T02:37:36;96550.16;;;7.43;78.88
39769;BME280;38939;47.824;14.642;2023-04-21T02:38:38;96558.56;;;7.45;78.88
39769;BME280;38939;47.824;14.642;2023-04-21T02:39:40;96550.41;;;7.48;78.04
39769;BME280;38939;47.824;14.642;2023-04-21T02:40:44;96549.97;;;7.37;78.96
39769;BME280;38939;47.824;14.642;2023-04-21T02:41:46;96555.28;;;7.29;79.46
39769;BME280;38939;47.824;14.642;2023-04-21T02:42:48;96551.84;;;7.22;80.06
39769;BME280;38939;47.824;14.642;2023-04-21T02:43:49;96553.63;;;7.21;79.99
39769;BME280;38939;47.824;14.642;2023-04-21T02:44:51;96559.88;;;7.27;80.38
39769;BME280;38939;47.824;14.642;2023-04-21T02:45:53;96555.28;;;7.29;79.94
39769;BME280;38939;47.824;14.642;2023-04-21T02:46:55;96557.31;;;7.34;79.72
39769;BME280;38939;47.824;14.642;2023-04-21T02:47:57;96549.72;;;7.32;79.99
39769;BME280;38939;47.824;14.642;2023-04-21T02:49:00;96557.69;;;7.31;80.43
39769;BME280;38939;47.824;14.642;2023-04-21T02:50:01;96548.91;;;7.32;80.14
39769;BME280;38939;47.824;14.642;2023-04-21T02:51:04;96551.94;;;7.35;79.31
39769;BME280;38939;47.824;14.642;2023-04-21T02:52:06;96551.53;;;7.38;79.13
39769;BME280;38939;47.824;14.642;2023-04-21T02:53:08;96552.16;;;7.40;78.81
39769;BME280;38939;47.824;14.642;2023-04-21T02:54:10;96548.59;;;7.41;78.72
39769;BME280;38939;47.824;14.642;2023-04-21T02:55:11;96551.38;;;7.40;78.59
39769;BME280;38939;47.824;14.642;2023-04-21T02:56:13;96544.56;;;7.39;78.78
39769;BME280;38939;47.824;14.642;2023-04-21T02:57:15;96540.34;;;7.31;79.25
39769;BME280;38939;47.824;14.642;2023-04-21T02:58:17;96555.66;;;7.26;78.90
39769;BME280;38939;47.824;14.642;2023-04-21T02:59:19;96545.44;;;7.18;79.42
39769;BME280;38939;47.824;14.642;2023-04-21T03:00:21;96543.59;;;7.12;79.63
39769;BME280;38939;47.824;14.642;2023-04-21T03:01:23;96540.38;;;7.10;80.75
39769;BME280;38939;47.824;14.642;2023-04-21T03:02:25;96542.78;;;7.11;79.91
39769;BME280;38939;47.824;14.642;2023-04-21T03:03:27;96537.59;;;7.11;80.81
39769;BME280;38939;47.824;14.642;2023-04-21T03:04:30;96541.19;;;7.10;80.75
39769;BME280;38939;47.824;14.642;2023-04-21T03:05:33;96545.00;;;7.14;80.12
39769;BME280;38939;47.824;14.642;2023-04-21T03:06:35;96547.16;;;7.11;81.41
39769;BME280;38939;47.824;14.642;2023-04-21T03:07:37;96542.69;;;6.98;81.78
39769;BME280;38939;47.824;14.642;2023-04-21T03:08:39;96539.25;;;6.91;82.38
39769;BME280;38939;47.824;14.642;2023-04-21T03:09:41;96537.44;;;6.91;82.13
39769;BME280;38939;47.824;14.642;2023-04-21T03:10:43;96538.69;;;6.95;82.30
39769;BME280;38939;47.824;14.642;2023-04-21T03:11:45;96541.03;;;6.90;82.46
39769;BME280;38939;47.824;14.642;2023-04-21T03:12:46;96541.34;;;6.80;82.58
39769;BME280;38939;47.824;14.642;2023-04-21T03:13:48;96537.84;;;6.67;83.14
39769;BME280;38939;47.824;14.642;2023-04-21T03:14:50;96539.75;;;6.58;84.72
39769;BME280;38939;47.824;14.642;2023-04-21T03:15:52;96541.38;;;6.59;84.81
39769;BME280;38939;47.824;14.642;2023-04-21T03:16:54;96539.22;;;6.63;84.90
39769;BME280;38939;47.824;14.642;2023-04-21T03:17:56;96541.22;;;6.67;84.69
39769;BME280;38939;47.824;14.642;2023-04-21T03:18:57;96537.22;;;6.65;84.84
39769;BME280;38939;47.824;14.642;2023-04-21T03:19:59;96534.88;;;6.70;84.09
39769;BME280;38939;47.824;14.642;2023-04-21T03:21:03;96542.69;;;6.76;84.15
39769;BME280;38939;47.824;14.642;2023-04-21T03:22:05;96540.19;;;6.83;83.76
39769;BME280;38939;47.824;14.642;2023-04-21T03:23:07;96546.22;;;6.90;83.36
39769;BME280;38939;47.824;14.642;2023-04-21T03:24:08;96549.84;;;6.96;82.31
39769;BME280;38939;47.824;14.642;2023-04-21T03:25:10;96550.09;;;7.01;82.04
39769;BME280;38939;47.824;14.642;2023-04-21T03:26:12;96548.31;;;7.01;82.70
39769;BME280;38939;47.824;14.642;2023-04-21T03:27:14;96548.31;;;7.01;81.56
39769;BME280;38939;47.824;14.642;2023-04-21T03:28:16;96541.88;;;6.97;82.08
39769;BME280;38939;47.824;14.642;2023-04-21T03:29:18;96548.31;;;7.01;81.96
39769;BME280;38939;47.824;14.642;2023-04-21T03:30:20;96545.53;;;7.03;81.56
39769;BME280;38939;47.824;14.642;2023-04-21T03:31:22;96548.31;;;7.01;82.36
39769;BME280;38939;47.824;14.642;2023-04-21T03:32:24;96546.50;;;7.02;81.24
39769;BME280;38939;47.824;14.642;2023-04-21T03:33:26;96545.28;;;6.98;81.96
39769;BME280;38939;47.824;14.642;2023-04-21T03:34:28;96543.47;;;6.98;81.83
39769;BME280;38939;47.824;14.642;2023-04-21T03:35:30;96548.31;;;7.01;81.37
39769;BME280;38939;47.824;14.642;2023-04-21T03:36:32;96546.31;;;7.04;81.26
39769;BME280;38939;47.824;14.642;2023-04-21T03:37:33;96539.72;;;7.01;81.41
39769;BME280;38939;47.824;14.642;2023-04-21T03:38:35;96541.13;;;7.04;81.77
39769;BME280;38939;47.824;14.642;2023-04-21T03:39:37;96543.34;;;7.07;80.57
39769;BME280;38939;47.824;14.642;2023-04-21T03:40:39;96544.69;;;7.03;82.10
39769;BME280;38939;47.824;14.642;2023-04-21T03:41:41;96541.88;;;6.97;80.92
39769;BME280;38939;47.824;14.642;2023-04-21T03:42:43;96545.09;;;6.99;80.90
39769;BME280;38939;47.824;14.642;2023-04-21T03:43:45;96543.91;;;7.02;80.99
39769;BME280;38939;47.824;14.642;2023-04-21T03:44:46;96537.53;;;7.05;80.57
39769;BME280;38939;47.824;14.642;2023-04-21T03:45:48;96548.75;;;7.05;81.15
39769;BME280;38939;47.824;14.642;2023-04-21T03:46:53;96541.75;;;7.06;80.21
39769;BME280;38939;47.824;14.642;2023-04-21T03:47:55;96537.53;;;7.05;80.43
39769;BME280;38939;47.824;14.642;2023-04-21T03:48:57;96540.75;;;7.07;80.80
39769;BME280;38939;47.824;14.642;2023-04-21T03:50:04;96548.53;;;7.07;79.30
39769;BME280;38939;47.824;14.642;2023-04-21T03:51:06;96547.91;;;7.05;80.56
39769;BME280;38939;47.824;14.642;2023-04-21T03:52:08;96544.34;;;7.06;80.21
39769;BME280;38939;47.824;14.642;2023-04-21T03:53:10;96545.13;;;7.06;79.74
39769;BME280;38939;47.824;14.642;2023-04-21T03:54:12;96537.97;;;7.08;80.20
39769;BME280;38939;47.824;14.642;2023-04-21T03:55:14;96542.97;;;7.10;79.27
39769;BME280;38939;47.824;14.642;2023-04-21T03:56:16;96542.97;;;7.10;79.51
39769;BME280;38939;47.824;14.642;2023-04-21T03:57:18;96547.16;;;7.11;79.69
39769;BME280;38939;47.824;14.642;2023-04-21T03:58:20;96549.56;;;7.12;80.02
39769;BME280;38939;47.824;14.642;2023-04-21T03:59:21;96552.97;;;7.13;79.15
39769;BME280;38939;47.824;14.642;2023-04-21T04:00:23;96556.38;;;7.13;78.99
39769;BME280;38939;47.824;14.642;2023-04-21T04:01:25;96552.78;;;7.14;79.33
39769;BME280;38939;47.824;14.642;2023-04-21T04:02:28;96557.97;;;7.14;79.93
39769;BME280;38939;47.824;14.642;2023-04-21T04:03:30;96561.56;;;7.13;79.89
39769;BME280;38939;47.824;14.642;2023-04-21T04:04:32;96559.94;;;7.12;79.30
39769;BME280;38939;47.824;14.642;2023-04-21T04:05:36;96563.13;;;7.08;79.23
39769;BME280;38939;47.824;14.642;2023-04-21T04:06:39;96559.91;;;7.06;79.68
39769;BME280;38939;47.824;14.642;2023-04-21T04:07:41;96565.09;;;7.06;79.58
39769;BME280;38939;47.824;14.642;2023-04-21T04:08:44;96559.09;;;7.05;78.88
39769;BME280;38939;47.824;14.642;2023-04-21T04:09:46;96554.72;;;7.06;79.39
39769;BME280;38939;47.824;14.642;2023-04-21T04:10:48;96551.50;;;7.04;79.78
39769;BME280;38939;47.824;14.642;2023-04-21T04:11:50;96551.69;;;7.02;79.91
39769;BME280;38939;47.824;14.642;2023-04-21T04:12:52;96566.41;;;6.95;80.47
39769;BME280;38939;47.824;14.642;2023-04-21T04:13:55;96554.16;;;6.89;80.18
39769;BME280;38939;47.824;14.642;2023-04-21T04:14:57;96560.19;;;6.89;80.00
39769;BME280;38939;47.824;14.642;2023-04-21T04:15:59;96554.00;;;6.90;80.85
39769;BME280;38939;47.824;14.642;2023-04-21T04:17:01;96560.78;;;6.91;80.52
39769;BME280;38939;47.824;14.642;2023-04-21T04:18:03;96552.22;;;6.91;80.62
39769;BME280;38939;47.824;14.642;2023-04-21T04:19:05;96550.25;;;6.93;80.30
39769;BME280;38939;47.824;14.642;2023-04-21T04:20:07;96559.00;;;6.92;80.86
39769;BME280;38939;47.824;14.642;2023-04-21T04:21:10;96555.44;;;6.93;80.74
39769;BME280;38939;47.824;14.642;2023-04-21T04:22:12;96558.38;;;6.90;81.10
39769;BME280;38939;47.824;14.642;2023-04-21T04:23:14;96559.00;;;6.92;80.88
39769;BME280;38939;47.824;14.642;2023-04-21T04:24:16;96555.22;;;6.94;80.01
39769;BME280;38939;47.824;14.642;2023-04-21T04:25:18;96557.28;;;6.99;79.76
39769;BME280;38939;47.824;14.642;2023-04-21T04:26:20;96560.47;;;7.01;80.22
39769;BME280;38939;47.824;14.642;2023-04-21T04:27:25;96553.50;;;7.01;79.71
39769;BME280;38939;47.824;14.642;2023-04-21T04:28:27;96559.47;;;7.02;80.23
39769;BME280;38939;47.824;14.642;2023-04-21T04:29:30;96557.66;;;7.03;79.17
39769;BME280;38939;47.824;14.642;2023-04-21T04:30:32;96554.09;;;7.04;79.75
39769;BME280;38939;47.824;14.642;2023-04-21T04:31:35;96559.91;;;7.06;78.97
39769;BME280;38939;47.824;14.642;2023-04-21T04:32:38;96556.69;;;7.04;79.24
39769;BME280;38939;47.824;14.642;2023-04-21T04:33:40;96559.47;;;7.02;79.60
39769;BME280;38939;47.824;14.642;2023-04-21T04:34:43;96560.66;;;6.99;79.37
39769;BME280;38939;47.824;14.642;2023-04-21T04:35:45;96561.44;;;7.00;79.89
39769;BME280;38939;47.824;14.642;2023-04-21T04:36:48;96562.47;;;6.99;79.99
39769;BME280;38939;47.824;14.642;2023-04-21T04:37:50;96559.88;;;6.99;79.69
39769;BME280;38939;47.824;14.642;2023-04-21T04:38:52;96552.69;;;7.01;80.40
39769;BME280;38939;47.824;14.642;2023-04-21T04:39:54;96560.28;;;7.03;79.70
39769;BME280;38939;47.824;14.642;2023-04-21T04:40:57;96558.50;;;7.03;79.15
39769;BME280;38939;47.824;14.642;2023-04-21T04:41:59;96560.88;;;7.05;79.53
39769;BME280;38939;47.824;14.642;2023-04-21T04:43:01;96556.09;;;7.01;80.57
39769;BME280;38939;47.824;14.642;2023-04-21T04:44:04;96567.22;;;6.95;81.58
39769;BME280;38939;47.824;14.642;2023-04-21T04:45:06;96557.19;;;6.92;81.44
39769;BME280;38939;47.824;14.642;2023-04-21T04:46:09;96562.03;;;6.74;82.29
39769;BME280;38939;47.824;14.642;2023-04-21T04:47:13;96560.31;;;6.59;82.68
39769;BME280;38939;47.824;14.642;2023-04-21T04:48:15;96559.50;;;6.59;82.90
39769;BME280;38939;47.824;14.642;2023-04-21T04:49:18;96559.41;;;6.52;83.65
39769;BME280;38939;47.824;14.642;2023-04-21T04:50:23;96558.63;;;6.52;84.59
39769;BME280;38939;47.824;14.642;2023-04-21T04:51:25;96563.31;;;6.41;85.29
39769;BME280;38939;47.824;14.642;2023-04-21T04:52:26;96560.22;;;6.31;86.23
39769;BME280;38939;47.824;14.642;2023-04-21T04:53:28;96564.16;;;6.27;86.55
39769;BME280;38939;47.824;14.642;2023-04-21T04:54:30;96556.38;;;6.27;87.54
39769;BME280;38939;47.824;14.642;2023-04-21T04:55:32;96559.03;;;6.34;88.24
39769;BME280;38939;47.824;14.642;2023-04-21T04:56:34;96560.47;;;6.36;87.93
39769;BME280;38939;47.824;14.642;2023-04-21T04:57:36;96559.75;;;6.43;88.90
39769;BME280;38939;47.824;14.642;2023-04-21T04:58:38;96552.38;;;6.46;88.70
39769;BME280;38939;47.824;14.642;2023-04-21T04:59:39;96555.25;;;6.51;87.98
39769;BME280;38939;47.824;14.642;2023-04-21T05:00:41;96555.50;;;6.56;88.44
39769;BME280;38939;47.824;14.642;2023-04-21T05:01:43;96555.91;;;6.60;87.94
39769;BME280;38939;47.824;14.642;2023-04-21T05:02:45;96555.72;;;6.61;87.78
39769;BME280;38939;47.824;14.642;2023-04-21T05:03:47;96556.34;;;6.64;88.66
39769;BME280;38939;47.824;14.642;2023-04-21T05:04:49;96561.78;;;6.69;88.25
39769;BME280;38939;47.824;14.642;2023-04-21T05:05:51;96557.84;;;6.73;87.65
39769;BME280;38939;47.824;14.642;2023-04-21T05:06:54;96561.84;;;6.75;87.59
39769;BME280;38939;47.824;14.642;2023-04-21T05:07:57;96562.47;;;6.77;87.75
39769;BME280;38939;47.824;14.642;2023-04-21T05:08:59;96565.69;;;6.79;87.79
39769;BME280;38939;47.824;14.642;2023-04-21T05:10:01;96561.53;;;6.85;87.95
39769;BME280;38939;47.824;14.642;2023-04-21T05:11:05;96559.78;;;6.92;87.68
39769;BME280;38939;47.824;14.642;2023-04-21T05:12:07;96555.44;;;6.93;87.75
39769;BME280;38939;47.824;14.642;2023-04-21T05:13:09;96555.03;;;6.96;87.72
39769;BME280;38939;47.824;14.642;2023-04-21T05:14:11;96555.47;;;6.99;87.35
39769;BME280;38939;47.824;14.642;2023-04-21T05:15:12;96558.50;;;7.03;86.70
39769;BME280;38939;47.824;14.642;2023-04-21T05:16:14;96558.50;;;7.03;86.93
39769;BME280;38939;47.824;14.642;2023-04-21T05:17:16;96562.25;;;7.00;87.56
39769;BME280;38939;47.824;14.642;2023-04-21T05:18:18;96568.66;;;7.05;87.14
39769;BME280;38939;47.824;14.642;2023-04-21T05:19:20;96559.47;;;7.02;87.48
39769;BME280;38939;47.824;14.642;2023-04-21T05:20:22;96564.31;;;7.05;87.69
39769;BME280;38939;47.824;14.642;2023-04-21T05:21:27;96560.69;;;7.06;87.12
39769;BME280;38939;47.824;14.642;2023-04-21T05:22:29;96565.09;;;7.06;87.71
39769;BME280;38939;47.824;14.642;2023-04-21T05:23:30;96567.06;;;7.04;86.63
39769;BME280;38939;47.824;14.642;2023-04-21T05:24:32;96566.31;;;7.10;86.63
39769;BME280;38939;47.824;14.642;2023-04-21T05:25:34;96554.75;;;7.12;86.14
39769;BME280;38939;47.824;14.642;2023-04-21T05:26:38;96563.59;;;7.18;86.13
39769;BME280;38939;47.824;14.642;2023-04-21T05:27:41;96565.78;;;7.21;86.71
39769;BME280;38939;47.824;14.642;2023-04-21T05:28:43;96568.81;;;7.25;87.01
39769;BME280;38939;47.824;14.642;2023-04-21T05:29:45;96571.22;;;7.26;86.70